createdAt,value
2023-05-14T00:09:02.872Z,16.23
2023-05-14T00:19:06.313Z,17.85
2023-05-14T00:29:08.351Z,17.45
2023-05-14T00:39:11.702Z,17.08
2023-05-14T00:49:13.859Z,18.25
2023-05-14T00:59:17.135Z,18.25
2023-05-14T01:09:26.595Z,16.75
2023-05-14T01:19:37.979Z,16.60
2023-05-14T01:29:45.417Z,16.85
2023-05-14T01:39:48.499Z,17.85
2023-05-14T01:49:51.863Z,18.33
2023-05-14T01:59:53.822Z,15.85
2023-05-14T02:09:57.207Z,18.55
2023-05-14T02:19:59.205Z,17.85
2023-05-14T02:30:02.654Z,17.98
2023-05-14T02:40:05.353Z,19.85
2023-05-14T02:50:09.566Z,20.65
2023-05-14T03:00:12.673Z,20.38
2023-05-14T03:10:17.768Z,17.67
2023-05-14T03:20:19.900Z,18.02
2023-05-14T03:30:23.532Z,20.60
2023-05-14T03:40:26.022Z,20.63
2023-05-14T03:50:29.445Z,23.75
2023-05-14T04:00:31.461Z,19.77
2023-05-14T04:10:34.809Z,18.98
2023-05-14T04:20:36.872Z,20.13
2023-05-14T04:30:40.193Z,22.88
2023-05-14T04:40:42.196Z,23.02
2023-05-14T04:50:45.517Z,24.17
2023-05-14T05:00:47.480Z,23.98
2023-05-14T05:10:50.814Z,22.75
2023-05-14T05:20:52.746Z,22.83
2023-05-14T05:30:56.089Z,22.15
2023-05-14T05:40:58.117Z,23.80
2023-05-14T05:51:01.497Z,20.83
2023-05-14T06:01:03.483Z,23.58
2023-05-14T06:11:06.893Z,24.55
2023-05-14T06:21:08.833Z,23.52
2023-05-14T06:31:12.122Z,20.95
2023-05-14T06:41:14.111Z,23.17
2023-05-14T06:51:17.486Z,20.95
2023-05-14T07:01:19.564Z,21.38
2023-05-14T07:11:23.069Z,22.40
2023-05-14T07:21:25.066Z,25.33
2023-05-14T07:31:28.417Z,22.27
2023-05-14T07:41:30.357Z,22.60
2023-05-14T07:51:33.792Z,21.55
2023-05-14T08:01:37.741Z,22.75
2023-05-14T08:11:42.476Z,21.33
2023-05-14T08:21:44.586Z,22.00
2023-05-14T08:31:49.465Z,23.55
2023-05-14T08:41:53.066Z,18.35
2023-05-14T08:51:56.659Z,18.65
2023-05-14T09:02:02.322Z,17.67
2023-05-14T09:12:07.262Z,17.15
2023-05-14T09:22:11.369Z,18.35
2023-05-14T09:32:14.747Z,15.18
2023-05-14T09:42:16.910Z,15.05
2023-05-14T09:52:20.430Z,14.32
2023-05-14T10:02:24.452Z,14.98
2023-05-14T10:12:32.863Z,16.38
2023-05-14T10:22:35.355Z,14.93
2023-05-14T10:32:39.074Z,14.05
2023-05-14T10:42:46.458Z,14.00
2023-05-14T10:52:51.457Z,13.98
2023-05-14T11:03:11.992Z,14.57
2023-05-14T11:13:15.917Z,14.55
2023-05-14T11:23:17.933Z,13.05
2023-05-14T11:33:21.327Z,13.73
2023-05-14T11:43:48.256Z,14.75
2023-05-14T11:53:51.534Z,14.15
2023-05-14T12:04:06.239Z,14.02
2023-05-14T12:14:37.580Z,12.27
2023-05-14T12:24:39.711Z,11.40
2023-05-14T12:34:43.109Z,10.27
2023-05-14T12:44:45.180Z,11.05
2023-05-14T12:54:48.520Z,12.20
2023-05-14T13:04:50.427Z,8.55
2023-05-14T13:14:53.711Z,7.20
2023-05-14T13:24:55.692Z,11.05
2023-05-14T13:34:59.007Z,7.95
2023-05-14T13:45:01.094Z,7.97
2023-05-14T13:55:05.146Z,7.25
2023-05-14T14:05:07.900Z,7.97
2023-05-14T14:15:11.832Z,9.05
2023-05-14T14:25:13.787Z,7.60
2023-05-14T14:35:18.540Z,6.88
2023-05-14T14:45:20.512Z,8.50
2023-05-14T14:55:24.114Z,10.10
2023-05-14T15:05:26.378Z,9.23
2023-05-14T15:15:29.797Z,6.60
2023-05-14T15:25:31.791Z,7.80
2023-05-14T15:35:35.088Z,7.40
2023-05-14T15:45:37.054Z,6.60
2023-05-14T15:55:40.399Z,7.28
2023-05-14T16:05:42.392Z,9.40
2023-05-14T16:15:53.401Z,7.07
2023-05-14T16:25:55.488Z,6.93
2023-05-14T16:35:58.862Z,6.20
2023-05-14T16:46:09.472Z,6.43
2023-05-14T16:56:12.912Z,7.47
2023-05-14T17:06:43.025Z,13.32
2023-05-14T17:16:46.846Z,7.20
2023-05-14T17:26:48.799Z,6.43
2023-05-14T17:36:52.175Z,6.57
2023-05-14T17:46:54.193Z,6.40
2023-05-14T17:56:57.576Z,5.93
2023-05-14T18:06:59.830Z,6.07
2023-05-14T18:17:03.676Z,9.98
2023-05-14T18:27:06.172Z,15.60
2023-05-14T18:37:09.684Z,17.85
2023-05-14T18:47:11.926Z,21.10
2023-05-14T18:57:15.238Z,22.45
2023-05-14T19:07:17.190Z,22.67
2023-05-14T19:17:20.739Z,24.45
2023-05-14T19:27:22.916Z,20.80
2023-05-14T19:37:26.307Z,20.45
2023-05-14T19:47:28.260Z,20.52
2023-05-14T19:57:31.634Z,26.88
2023-05-14T20:07:33.564Z,26.88
2023-05-14T20:17:37.811Z,23.20
2023-05-14T20:27:40.333Z,22.67
2023-05-14T20:37:43.750Z,21.65
2023-05-14T20:47:45.752Z,18.67
2023-05-14T20:57:49.103Z,17.50
2023-05-14T21:07:51.050Z,15.50
2023-05-14T21:17:54.581Z,12.88
2023-05-14T21:27:56.884Z,8.70
2023-05-14T21:38:00.248Z,6.32
2023-05-14T21:48:02.493Z,3.90
2023-05-14T21:58:06.979Z,3.90
2023-05-14T22:08:08.941Z,4.75
2023-05-14T22:18:12.378Z,2.80
2023-05-14T22:28:14.345Z,1.60
2023-05-14T22:38:17.680Z,2.08
2023-05-14T22:48:19.696Z,1.90
2023-05-14T22:58:23.121Z,2.70
2023-05-14T23:08:25.054Z,1.98
2023-05-14T23:18:28.584Z,1.50
2023-05-14T23:28:31.148Z,2.28
2023-05-14T23:38:34.564Z,2.20
2023-05-14T23:48:36.565Z,1.58
2023-05-14T23:58:39.922Z,1.75
